Time;durP1;ratioP1;P1;durP2;ratioP2;P2;SDS_P1;SDS_P2;PMS_P1;PMS_P2;Temp;Humidity;BMP_temperature;BMP_pressure;BME280_temperature;BME280_humidity;BME280_pressure;Samples;Min_cycle;Max_cycle;Signal;HPM_P1;HPM_P2
2023/10/12 00:01:25;;;;;;;5.18;3.05;;;;;;;;;;5056822;28;20079;-59
2023/10/12 00:04:04;;;;;;;9.32;3.47;;;;;;;;;;5056388;28;20025;-59
2023/10/12 00:06:36;;;;;;;6.90;3.22;;;;;;;;;;5056891;28;20370;-59
2023/10/12 00:09:17;;;;;;;5.68;2.65;;;;;;;;;;5057039;28;20082;-59
2023/10/12 00:11:48;;;;;;;6.05;2.88;;;;;;;;;;5056319;28;20051;-59
2023/10/12 00:14:14;;;;;;;6.70;2.90;;;;;;;;;;5056803;28;20363;-59
2023/10/12 00:16:43;;;;;;;7.00;2.63;;;;;;;;;;5056787;28;20025;-59
2023/10/12 00:19:12;;;;;;;4.20;2.38;;;;;;;;;;5056052;28;20033;-59
2023/10/12 00:21:38;;;;;;;5.43;2.33;;;;;;;;;;5056618;28;20025;-58
2023/10/12 00:24:06;;;;;;;6.22;3.38;;;;;;;;;;5056102;28;20028;-59
2023/10/12 00:26:32;;;;;;;7.22;3.13;;;;;;;;;;5055900;28;20040;-59
2023/10/12 00:28:58;;;;;;;5.10;2.67;;;;;;;;;;5056173;28;20021;-59
2023/10/12 00:31:25;;;;;;;5.68;3.38;;;;;;;;;;5056281;28;20027;-59
2023/10/12 00:33:51;;;;;;;4.95;2.72;;;;;;;;;;5055869;28;20036;-59
2023/10/12 00:36:24;;;;;;;5.70;3.38;;;;;;;;;;5056537;28;20025;-59
2023/10/12 00:38:52;;;;;;;5.43;2.35;;;;;;;;;;5056058;28;20029;-59
2023/10/12 00:41:19;;;;;;;3.58;2.40;;;;;;;;;;5056239;28;20018;-59
2023/10/12 00:43:52;;;;;;;5.03;2.80;;;;;;;;;;5055596;28;20028;-59
2023/10/12 00:49:01;;;;;;;4.20;2.83;;;;;;;;;;5055558;28;20112;-59
2023/10/12 00:51:33;;;;;;;7.25;2.42;;;;;;;;;;5055335;28;20039;-59
2023/10/12 00:53:59;;;;;;;5.68;3.20;;;;;;;;;;5055460;28;20112;-59
2023/10/12 00:56:28;;;;;;;5.25;3.10;;;;;;;;;;5055418;28;20245;-59
2023/10/12 00:58:55;;;;;;;4.25;3.10;;;;;;;;;;5054863;28;20036;-59
2023/10/12 01:01:22;;;;;;;9.73;3.47;;;;;;;;;;5055876;28;20079;-59
2023/10/12 01:03:49;;;;;;;7.35;3.00;;;;;;;;;;5055426;28;20455;-59
2023/10/12 01:06:28;;;;;;;5.10;3.42;;;;;;;;;;5055255;28;20029;-59
2023/10/12 01:08:58;;;;;;;5.63;3.38;;;;;;;;;;5055673;28;20083;-59
2023/10/12 01:11:26;;;;;;;8.20;3.03;;;;;;;;;;5055638;28;20024;-59
2023/10/12 01:14:09;;;;;;;6.68;3.13;;;;;;;;;;5055044;28;20097;-59
2023/10/12 01:19:21;;;;;;;6.45;3.17;;;;;;;;;;5055030;28;20037;-59
2023/10/12 01:21:47;;;;;;;4.43;3.08;;;;;;;;;;5055726;28;20021;-59
2023/10/12 01:24:14;;;;;;;4.50;3.22;;;;;;;;;;5054866;28;20021;-59
2023/10/12 01:26:44;;;;;;;5.45;2.88;;;;;;;;;;5055579;28;20090;-59
2023/10/12 01:29:19;;;;;;;5.30;3.55;;;;;;;;;;5055326;28;20021;-59
2023/10/12 01:31:51;;;;;;;4.82;2.78;;;;;;;;;;5055315;28;20025;-59
2023/10/12 01:34:17;;;;;;;6.00;3.58;;;;;;;;;;5055101;28;20076;-59
2023/10/12 01:36:43;;;;;;;6.30;3.47;;;;;;;;;;5054604;28;20103;-59
2023/10/12 01:39:11;;;;;;;5.97;2.92;;;;;;;;;;5055349;28;20471;-59
2023/10/12 01:41:40;;;;;;;5.38;3.17;;;;;;;;;;5055167;28;20041;-59
2023/10/12 01:44:10;;;;;;;6.65;3.42;;;;;;;;;;5054446;28;20498;-59
2023/10/12 01:46:36;;;;;;;10.07;3.10;;;;;;;;;;5054370;28;20048;-59
2023/10/12 01:49:03;;;;;;;5.35;3.25;;;;;;;;;;5054416;28;20017;-59
2023/10/12 01:51:29;;;;;;;4.13;2.97;;;;;;;;;;5054867;28;20056;-59
2023/10/12 01:53:56;;;;;;;4.47;2.90;;;;;;;;;;5054256;28;20025;-59
2023/10/12 01:56:27;;;;;;;12.07;3.35;;;;;;;;;;5054194;28;20366;-59
2023/10/12 01:58:54;;;;;;;4.40;2.78;;;;;;;;;;5054653;28;20120;-59
2023/10/12 02:01:21;;;;;;;5.57;2.65;;;;;;;;;;5054745;28;20402;-59
2023/10/12 02:03:53;;;;;;;7.15;3.05;;;;;;;;;;5054599;28;20033;-59
2023/10/12 02:06:22;;;;;;;4.38;2.97;;;;;;;;;;5054673;28;20146;-59
2023/10/12 02:09:10;;;;;;;6.05;3.25;;;;;;;;;;5054597;28;20021;-59
2023/10/12 02:11:45;;;;;;;5.05;3.50;;;;;;;;;;5054019;28;20086;-59
2023/10/12 02:14:12;;;;;;;4.15;3.03;;;;;;;;;;5053936;28;20159;-59
2023/10/12 02:16:38;;;;;;;5.68;2.78;;;;;;;;;;5053825;28;20024;-59
2023/10/12 02:19:05;;;;;;;4.65;3.47;;;;;;;;;;5053846;28;20124;-59
2023/10/12 02:21:33;;;;;;;4.68;2.97;;;;;;;;;;5054655;28;20047;-59
2023/10/12 02:26:52;;;;;;;5.15;3.60;;;;;;;;;;5053912;28;20037;-59
2023/10/12 02:29:18;;;;;;;4.07;2.45;;;;;;;;;;5053498;28;20083;-59
2023/10/12 02:34:17;;;;;;;4.60;3.15;;;;;;;;;;5053742;28;20078;-59
2023/10/12 02:39:30;;;;;;;5.05;2.80;;;;;;;;;;5053926;28;20109;-59
2023/10/12 02:45:08;;;;;;;3.70;2.72;;;;;;;;;;5053324;28;20033;-59
2023/10/12 02:47:31;;;;;;;4.38;2.80;;;;;;;;;;5053294;28;20065;-59
2023/10/12 02:50:14;;;;;;;4.60;2.97;;;;;;;;;;5053810;28;20031;-59
2023/10/12 02:52:43;;;;;;;4.60;3.13;;;;;;;;;;5054017;28;20074;-59
2023/10/12 02:55:25;;;;;;;6.77;3.53;;;;;;;;;;5053433;28;20474;-59
2023/10/12 02:58:06;;;;;;;4.53;2.95;;;;;;;;;;5053916;28;20367;-60
2023/10/12 03:00:36;;;;;;;4.47;3.28;;;;;;;;;;5053439;28;20021;-59
2023/10/12 03:03:08;;;;;;;11.43;3.03;;;;;;;;;;5053832;28;20017;-59
2023/10/12 03:05:48;;;;;;;8.75;3.60;;;;;;;;;;5053867;28;20063;-59
2023/10/12 03:08:17;;;;;;;4.57;3.10;;;;;;;;;;5054133;28;20029;-59
2023/10/12 03:13:25;;;;;;;3.40;2.67;;;;;;;;;;5057716;28;20033;-59
2023/10/12 03:15:58;;;;;;;6.20;3.15;;;;;;;;;;5057325;28;20025;-59
2023/10/12 03:18:26;;;;;;;7.07;3.22;;;;;;;;;;5057747;28;20040;-59
2023/10/12 03:21:11;;;;;;;4.75;3.42;;;;;;;;;;5057721;28;20024;-59
2023/10/12 03:23:38;;;;;;;9.38;3.20;;;;;;;;;;5057699;28;20082;-59
2023/10/12 03:26:05;;;;;;;3.60;2.78;;;;;;;;;;5057384;28;20029;-59
2023/10/12 03:28:36;;;;;;;4.60;2.88;;;;;;;;;;5057586;28;20070;-59
2023/10/12 03:31:15;;;;;;;4.35;2.80;;;;;;;;;;5057576;28;20021;-59
2023/10/12 03:33:52;;;;;;;4.57;3.22;;;;;;;;;;5057578;28;20371;-59
2023/10/12 03:36:33;;;;;;;5.97;2.97;;;;;;;;;;5057406;28;20064;-59
2023/10/12 03:47:05;;;;;;;4.93;3.55;;;;;;;;;;5056817;28;20040;-59
2023/10/12 03:49:45;;;;;;;5.97;3.67;;;;;;;;;;5057525;28;20074;-59
2023/10/12 03:52:14;;;;;;;4.63;2.60;;;;;;;;;;5057249;28;20021;-59
2023/10/12 03:54:55;;;;;;;5.72;3.20;;;;;;;;;;5056869;28;20021;-59
2023/10/12 03:57:30;;;;;;;3.40;2.55;;;;;;;;;;5057654;28;20047;-59
2023/10/12 04:02:41;;;;;;;6.35;2.95;;;;;;;;;;5056662;28;20032;-59
2023/10/12 04:18:35;;;;;;;3.53;2.40;;;;;;;;;;5056353;28;20044;-59
2023/10/12 04:21:04;;;;;;;3.75;2.90;;;;;;;;;;5055972;28;20021;-59
2023/10/12 04:28:42;;;;;;;6.50;2.90;;;;;;;;;;5056023;28;20116;-59
2023/10/12 04:33:55;;;;;;;5.13;3.10;;;;;;;;;;5056064;28;20036;-59
2023/10/12 04:39:16;;;;;;;3.85;2.78;;;;;;;;;;5055949;28;20479;-59
2023/10/12 04:47:20;;;;;;;4.40;2.90;;;;;;;;;;5055850;28;20048;-59
2023/10/12 04:57:26;;;;;;;5.63;3.50;;;;;;;;;;5055519;28;20034;-59
2023/10/12 05:00:06;;;;;;;6.28;2.38;;;;;;;;;;5056057;28;20022;-59
2023/10/12 05:03:23;;;;;;;4.03;2.60;;;;;;;;;;5056330;28;20025;-59
2023/10/12 05:07:54;;;;;;;4.20;2.80;;;;;;;;;;5055348;28;20060;-59
2023/10/12 05:10:31;;;;;;;4.75;3.05;;;;;;;;;;5055248;28;20021;-59
2023/10/12 05:13:03;;;;;;;6.18;2.85;;;;;;;;;;5055740;28;20033;-59
2023/10/12 05:15:39;;;;;;;4.88;3.20;;;;;;;;;;5055154;28;20151;-59
2023/10/12 05:18:06;;;;;;;4.25;2.95;;;;;;;;;;5055587;28;20406;-59
2023/10/12 05:20:32;;;;;;;4.05;2.83;;;;;;;;;;5055504;28;20025;-59
2023/10/12 05:22:58;;;;;;;5.03;3.13;;;;;;;;;;5054660;28;20027;-59
2023/10/12 05:25:33;;;;;;;5.70;3.05;;;;;;;;;;5055518;28;20025;-59
2023/10/12 05:28:13;;;;;;;5.97;3.05;;;;;;;;;;5054870;28;20025;-59
2023/10/12 05:30:39;;;;;;;5.25;2.97;;;;;;;;;;5055430;28;20071;-59
2023/10/12 05:33:06;;;;;;;6.28;2.78;;;;;;;;;;5054538;28;20368;-59
2023/10/12 05:35:52;;;;;;;6.60;3.95;;;;;;;;;;5054428;28;20045;-59
2023/10/12 05:38:18;;;;;;;5.45;3.08;;;;;;;;;;5056043;28;20332;-59
2023/10/12 05:40:53;;;;;;;8.20;3.88;;;;;;;;;;5054942;28;20116;-59
2023/10/12 05:43:22;;;;;;;5.15;3.25;;;;;;;;;;5055099;28;20068;-59
2023/10/12 05:45:48;;;;;;;4.35;2.88;;;;;;;;;;5054525;28;20024;-59
2023/10/12 05:48:19;;;;;;;5.60;2.97;;;;;;;;;;5054056;28;20021;-59
2023/10/12 05:50:49;;;;;;;5.78;3.22;;;;;;;;;;5055054;28;20098;-59
2023/10/12 05:53:16;;;;;;;5.22;3.22;;;;;;;;;;5055064;28;20021;-59
2023/10/12 05:55:42;;;;;;;7.95;3.10;;;;;;;;;;5055094;28;20033;-59
2023/10/12 05:58:13;;;;;;;6.22;3.30;;;;;;;;;;5054465;28;20360;-59
2023/10/12 06:00:44;;;;;;;5.68;3.47;;;;;;;;;;5054474;28;20032;-59
2023/10/12 06:03:15;;;;;;;11.45;3.20;;;;;;;;;;5055093;28;20103;-59
2023/10/12 06:05:41;;;;;;;5.50;3.30;;;;;;;;;;5054289;28;20032;-59
2023/10/12 06:08:10;;;;;;;5.10;3.35;;;;;;;;;;5054699;28;20035;-59
2023/10/12 06:10:41;;;;;;;3.80;3.08;;;;;;;;;;5054095;28;20493;-59
2023/10/12 06:13:07;;;;;;;4.18;3.30;;;;;;;;;;5054696;28;20024;-59
2023/10/12 06:15:39;;;;;;;5.70;3.33;;;;;;;;;;5054290;28;20410;-59
2023/10/12 06:18:05;;;;;;;4.18;3.00;;;;;;;;;;5054560;28;20467;-59
2023/10/12 06:20:36;;;;;;;6.55;2.88;;;;;;;;;;5054243;28;20035;-59
2023/10/12 06:23:08;;;;;;;7.70;2.80;;;;;;;;;;5054645;28;20384;-59
2023/10/12 06:25:38;;;;;;;4.63;2.90;;;;;;;;;;5054448;28;20052;-59
2023/10/12 06:28:06;;;;;;;5.30;2.75;;;;;;;;;;5053770;28;20108;-59
2023/10/12 06:30:32;;;;;;;4.90;2.88;;;;;;;;;;5054328;28;20029;-59
2023/10/12 06:32:59;;;;;;;6.30;2.90;;;;;;;;;;5054253;28;20395;-59
2023/10/12 06:35:26;;;;;;;7.25;3.20;;;;;;;;;;5053532;28;20051;-59
2023/10/12 06:43:57;;;;;;;4.05;2.80;;;;;;;;;;5053671;28;20109;-59
2023/10/12 06:45:54;;;;;;;6.28;3.33;;;;;;;;;;5052541;28;20029;-59
2023/10/12 06:51:02;;;;;;;5.20;3.22;;;;;;;;;;5053695;28;20036;-59
2023/10/12 06:53:35;;;;;;;5.65;3.50;;;;;;;;;;5053822;28;20363;-59
2023/10/12 07:01:38;;;;;;;4.47;2.85;;;;;;;;;;5053296;28;20035;-59
2023/10/12 07:04:12;;;;;;;6.00;2.50;;;;;;;;;;5054191;28;20049;-59
2023/10/12 07:06:39;;;;;;;7.90;3.00;;;;;;;;;;5053645;28;20028;-59
2023/10/12 07:09:06;;;;;;;5.32;2.90;;;;;;;;;;5053572;28;20021;-59
2023/10/12 07:11:32;;;;;;;7.60;3.50;;;;;;;;;;5053145;28;20451;-59
2023/10/12 07:14:04;;;;;;;7.15;3.53;;;;;;;;;;5053021;28;20029;-59
2023/10/12 07:16:36;;;;;;;7.80;3.40;;;;;;;;;;5053778;28;20375;-59
2023/10/12 07:19:02;;;;;;;4.28;3.10;;;;;;;;;;5053332;28;20029;-59
2023/10/12 07:21:28;;;;;;;4.82;3.28;;;;;;;;;;5053847;28;20029;-59
2023/10/12 07:23:57;;;;;;;5.22;3.28;;;;;;;;;;5054093;28;20459;-59
2023/10/12 07:26:30;;;;;;;3.58;2.63;;;;;;;;;;5053122;28;20478;-59
2023/10/12 07:28:56;;;;;;;4.20;2.65;;;;;;;;;;5053129;28;20387;-59
2023/10/12 07:34:07;;;;;;;4.28;2.97;;;;;;;;;;5052996;28;20119;-59
2023/10/12 07:36:44;;;;;;;4.30;3.00;;;;;;;;;;5053763;28;20021;-59
2023/10/12 07:39:19;;;;;;;5.05;3.00;;;;;;;;;;5053694;28;20108;-59
2023/10/12 07:41:54;;;;;;;6.25;3.05;;;;;;;;;;5053651;28;20096;-59
2023/10/12 07:44:20;;;;;;;5.47;3.15;;;;;;;;;;5053710;28;20033;-59
2023/10/12 07:46:46;;;;;;;4.72;2.92;;;;;;;;;;5053016;28;20094;-60
2023/10/12 07:49:36;;;;;;;4.78;3.22;;;;;;;;;;5052820;28;20021;-59
2023/10/12 07:52:08;;;;;;;4.85;3.53;;;;;;;;;;5053503;28;20025;-59
2023/10/12 07:57:15;;;;;;;5.60;3.75;;;;;;;;;;5055966;28;20036;-59
2023/10/12 08:23:50;;;;;;;5.80;3.33;;;;;;;;;;5056295;28;20454;-59
2023/10/12 08:29:08;;;;;;;4.28;3.00;;;;;;;;;;5056118;28;20074;-59
2023/10/12 08:31:35;;;;;;;5.03;3.45;;;;;;;;;;5056013;28;20024;-59
2023/10/12 08:34:13;;;;;;;10.05;3.20;;;;;;;;;;5056200;28;20029;-59
2023/10/12 08:37:08;;;;;;;7.05;3.40;;;;;;;;;;5055638;28;20443;-59
2023/10/12 08:39:37;;;;;;;7.55;3.13;;;;;;;;;;5055737;28;20131;-59
2023/10/12 08:44:59;;;;;;;5.05;3.05;;;;;;;;;;5055829;28;20477;-59
2023/10/12 08:52:30;;;;;;;5.78;2.88;;;;;;;;;;5055706;28;20033;-59
2023/10/12 08:55:03;;;;;;;7.00;3.58;;;;;;;;;;5056104;28;20477;-59
2023/10/12 08:58:01;;;;;;;4.55;2.88;;;;;;;;;;5056121;28;20071;-59
2023/10/12 09:03:03;;;;;;;6.05;3.25;;;;;;;;;;5055355;28;20029;-59
2023/10/12 09:05:33;;;;;;;6.03;3.70;;;;;;;;;;5055895;28;20078;-59
2023/10/12 09:08:06;;;;;;;7.65;3.55;;;;;;;;;;5054100;28;20017;-59
2023/10/12 09:10:55;;;;;;;6.13;3.20;;;;;;;;;;5055581;28;20539;-59
2023/10/12 09:13:21;;;;;;;5.15;3.55;;;;;;;;;;5056011;28;20055;-59
2023/10/12 09:15:54;;;;;;;6.72;3.17;;;;;;;;;;5055279;28;20031;-59
2023/10/12 09:18:21;;;;;;;6.53;3.30;;;;;;;;;;5055640;28;20029;-59
2023/10/12 09:23:31;;;;;;;5.95;3.42;;;;;;;;;;5055116;28;20025;-59
2023/10/12 09:26:15;;;;;;;7.15;3.47;;;;;;;;;;5055033;28;20108;-59
2023/10/12 09:31:14;;;;;;;5.25;3.40;;;;;;;;;;5055045;28;20032;-59
2023/10/12 09:36:26;;;;;;;5.35;3.70;;;;;;;;;;5054819;28;20095;-59
2023/10/12 09:38:56;;;;;;;6.25;3.70;;;;;;;;;;5055021;28;20450;-59
2023/10/12 09:41:33;;;;;;;5.05;3.42;;;;;;;;;;5055314;28;20021;-59
2023/10/12 09:44:06;;;;;;;4.70;3.17;;;;;;;;;;5054670;28;20025;-59
2023/10/12 09:46:33;;;;;;;9.27;3.88;;;;;;;;;;5054683;28;20466;-59
2023/10/12 09:49:21;;;;;;;5.47;3.20;;;;;;;;;;5054273;28;20052;-59
2023/10/12 09:51:48;;;;;;;4.18;3.00;;;;;;;;;;5055059;28;20021;-59
2023/10/12 09:54:16;;;;;;;4.18;2.88;;;;;;;;;;5054218;28;20025;-59
2023/10/12 09:56:57;;;;;;;9.02;4.32;;;;;;;;;;5054438;28;20037;-59
2023/10/12 09:59:23;;;;;;;4.03;2.97;;;;;;;;;;5054872;28;20033;-59
2023/10/12 10:01:49;;;;;;;5.18;3.67;;;;;;;;;;5054910;28;20455;-59
2023/10/12 10:07:08;;;;;;;4.47;3.25;;;;;;;;;;5054326;28;20087;-59
2023/10/12 10:12:04;;;;;;;4.95;3.40;;;;;;;;;;5054009;28;20025;-59
2023/10/12 10:14:37;;;;;;;9.50;4.00;;;;;;;;;;5054115;28;20482;-59
2023/10/12 10:17:09;;;;;;;4.72;3.15;;;;;;;;;;5054048;28;20506;-59
2023/10/12 10:19:35;;;;;;;5.20;3.85;;;;;;;;;;5053673;28;20160;-59
2023/10/12 10:22:14;;;;;;;5.85;3.00;;;;;;;;;;5053960;28;20021;-59
2023/10/12 10:24:55;;;;;;;4.20;3.00;;;;;;;;;;5054491;28;20032;-59
2023/10/12 10:27:29;;;;;;;4.60;3.33;;;;;;;;;;5053949;28;20029;-59
2023/10/12 10:29:59;;;;;;;6.00;3.72;;;;;;;;;;5054281;28;20127;-59
2023/10/12 10:32:33;;;;;;;10.10;4.07;;;;;;;;;;5054661;28;20032;-59
2023/10/12 10:35:04;;;;;;;12.20;3.92;;;;;;;;;;5053651;28;20056;-59
2023/10/12 10:37:47;;;;;;;5.60;3.70;;;;;;;;;;5054196;28;20336;-59
2023/10/12 10:40:17;;;;;;;5.60;3.28;;;;;;;;;;5054069;28;20064;-59
2023/10/12 10:42:46;;;;;;;7.32;3.40;;;;;;;;;;5054088;28;20021;-59
2023/10/12 10:45:12;;;;;;;5.53;3.50;;;;;;;;;;5053520;28;20032;-59
2023/10/12 10:47:49;;;;;;;5.93;3.28;;;;;;;;;;5053616;28;20025;-59
2023/10/12 10:50:15;;;;;;;4.20;3.15;;;;;;;;;;5054090;28;20032;-59
2023/10/12 10:52:44;;;;;;;7.20;3.53;;;;;;;;;;5053893;28;20028;-59
2023/10/12 10:55:11;;;;;;;4.95;3.65;;;;;;;;;;5054067;28;20031;-60
2023/10/12 10:57:40;;;;;;;5.68;3.25;;;;;;;;;;5053955;28;20029;-59
2023/10/12 11:00:18;;;;;;;7.97;3.45;;;;;;;;;;5053738;28;20045;-59
2023/10/12 11:02:47;;;;;;;4.60;3.40;;;;;;;;;;5054266;28;20091;-59
2023/10/12 11:05:19;;;;;;;4.90;3.83;;;;;;;;;;5053284;28;20052;-59
2023/10/12 11:07:50;;;;;;;4.78;4.00;;;;;;;;;;5053897;28;20041;-59
2023/10/12 11:10:19;;;;;;;6.90;3.60;;;;;;;;;;5053599;28;20414;-59
2023/10/12 11:12:46;;;;;;;6.22;4.07;;;;;;;;;;5053389;28;20029;-59
2023/10/12 11:15:19;;;;;;;4.75;3.17;;;;;;;;;;5053163;28;20029;-59
2023/10/12 11:17:56;;;;;;;6.38;3.67;;;;;;;;;;5053269;28;20033;-59
2023/10/12 11:20:34;;;;;;;5.68;3.55;;;;;;;;;;5053863;28;20044;-60
2023/10/12 11:23:03;;;;;;;4.05;3.08;;;;;;;;;;5053446;28;20029;-59
2023/10/12 11:25:29;;;;;;;3.95;2.63;;;;;;;;;;5053253;28;20021;-59
2023/10/12 11:27:55;;;;;;;10.57;4.07;;;;;;;;;;5054044;28;20035;-59
2023/10/12 11:30:31;;;;;;;8.98;3.45;;;;;;;;;;5053927;28;20104;-59
2023/10/12 11:32:59;;;;;;;6.32;4.05;;;;;;;;;;5057643;28;20025;-59
2023/10/12 11:35:41;;;;;;;6.68;3.53;;;;;;;;;;5057112;28;20064;-59
2023/10/12 11:38:20;;;;;;;6.07;4.05;;;;;;;;;;5057498;28;20116;-60
2023/10/12 11:40:52;;;;;;;6.05;3.60;;;;;;;;;;5056990;28;20037;-60
2023/10/12 11:43:18;;;;;;;7.07;3.22;;;;;;;;;;5056604;28;20017;-59
2023/10/12 11:45:56;;;;;;;5.80;3.67;;;;;;;;;;5056913;28;20029;-60
2023/10/12 11:48:23;;;;;;;5.45;3.63;;;;;;;;;;5057345;28;20075;-59
2023/10/12 11:50:50;;;;;;;15.00;4.63;;;;;;;;;;5056949;28;20064;-59
2023/10/12 11:53:17;;;;;;;4.32;3.25;;;;;;;;;;5056696;28;20021;-60
2023/10/12 11:55:43;;;;;;;4.53;3.38;;;;;;;;;;5057261;28;20100;-59
2023/10/12 11:58:13;;;;;;;3.85;3.40;;;;;;;;;;5056613;28;20025;-60
2023/10/12 12:00:44;;;;;;;6.10;3.77;;;;;;;;;;5056721;28;20032;-59
2023/10/12 12:03:10;;;;;;;5.88;3.90;;;;;;;;;;5057420;28;20013;-60
2023/10/12 12:05:36;;;;;;;5.88;4.03;;;;;;;;;;5056580;28;20135;-59
2023/10/12 12:08:06;;;;;;;4.28;2.75;;;;;;;;;;5057032;28;20139;-59
2023/10/12 12:13:16;;;;;;;4.88;3.88;;;;;;;;;;5056757;28;20468;-60
2023/10/12 12:15:46;;;;;;;4.72;3.05;;;;;;;;;;5056458;28;20017;-59
2023/10/12 12:18:21;;;;;;;7.55;4.13;;;;;;;;;;5056785;28;20371;-60
2023/10/12 12:20:48;;;;;;;5.28;3.20;;;;;;;;;;5056850;28;20116;-60
2023/10/12 12:23:28;;;;;;;7.80;3.63;;;;;;;;;;5056229;28;20025;-59
2023/10/12 12:26:17;;;;;;;9.25;4.20;;;;;;;;;;5056552;28;20096;-59
2023/10/12 12:28:44;;;;;;;5.57;3.08;;;;;;;;;;5056003;28;20041;-60
2023/10/12 12:31:13;;;;;;;7.25;4.88;;;;;;;;;;5056596;28;20036;-59
2023/10/12 12:33:43;;;;;;;6.68;3.83;;;;;;;;;;5056007;28;20419;-59
2023/10/12 12:36:10;;;;;;;5.50;3.95;;;;;;;;;;5056685;28;20375;-60
2023/10/12 12:41:05;;;;;;;6.95;4.40;;;;;;;;;;5055070;28;20037;-60
2023/10/12 12:43:33;;;;;;;4.25;3.47;;;;;;;;;;5054912;28;20017;-59
2023/10/12 12:45:59;;;;;;;8.90;4.00;;;;;;;;;;5055485;28;20427;-59
2023/10/12 12:48:25;;;;;;;10.00;4.20;;;;;;;;;;5055295;28;20118;-59
2023/10/12 12:50:51;;;;;;;6.18;3.67;;;;;;;;;;5055781;28;20047;-59
2023/10/12 12:53:20;;;;;;;5.53;3.42;;;;;;;;;;5055166;28;20021;-59
2023/10/12 12:55:46;;;;;;;5.53;3.53;;;;;;;;;;5055348;28;20096;-59
2023/10/12 12:58:15;;;;;;;5.75;3.83;;;;;;;;;;5055418;28;20119;-60
2023/10/12 13:00:42;;;;;;;7.03;4.07;;;;;;;;;;5055292;28;20025;-60
2023/10/12 13:03:09;;;;;;;10.30;4.72;;;;;;;;;;5055728;28;20064;-60
2023/10/12 13:05:36;;;;;;;9.95;4.20;;;;;;;;;;5055310;28;20127;-60
2023/10/12 13:08:02;;;;;;;7.20;3.55;;;;;;;;;;5055137;28;20470;-60
2023/10/12 13:10:29;;;;;;;5.00;3.45;;;;;;;;;;5055759;28;20017;-59
2023/10/12 13:12:55;;;;;;;6.05;3.83;;;;;;;;;;5055831;28;20033;-59
2023/10/12 13:15:23;;;;;;;5.97;3.42;;;;;;;;;;5055073;28;20031;-59
2023/10/12 13:17:48;;;;;;;5.35;3.58;;;;;;;;;;5055016;28;20033;-59
2023/10/12 13:20:29;;;;;;;6.65;4.22;;;;;;;;;;5055414;28;20028;-60
2023/10/12 13:22:55;;;;;;;5.45;3.90;;;;;;;;;;5055547;28;20434;-59
2023/10/12 13:25:21;;;;;;;4.22;3.55;;;;;;;;;;5055035;28;20029;-60
2023/10/12 13:27:49;;;;;;;9.35;4.25;;;;;;;;;;5055351;28;20028;-59
2023/10/12 13:30:15;;;;;;;6.75;3.85;;;;;;;;;;5055164;28;20025;-59
2023/10/12 13:32:48;;;;;;;8.27;4.40;;;;;;;;;;5055316;28;20078;-59
2023/10/12 13:35:41;;;;;;;6.13;3.83;;;;;;;;;;5054808;28;20041;-60
2023/10/12 13:38:09;;;;;;;6.22;3.38;;;;;;;;;;5055023;28;20025;-60
2023/10/12 13:40:43;;;;;;;8.43;4.45;;;;;;;;;;5054645;28;20040;-60
2023/10/12 13:43:18;;;;;;;7.88;4.28;;;;;;;;;;5054555;28;20021;-59
2023/10/12 13:45:48;;;;;;;7.15;3.65;;;;;;;;;;5054781;28;20029;-59
2023/10/12 13:48:21;;;;;;;6.93;4.78;;;;;;;;;;5054387;28;20032;-60
2023/10/12 13:51:19;;;;;;;6.60;4.57;;;;;;;;;;5054974;28;20033;-59
2023/10/12 13:53:46;;;;;;;4.53;3.75;;;;;;;;;;5054726;28;20029;-60
2023/10/12 13:56:15;;;;;;;5.55;4.07;;;;;;;;;;5053985;28;20021;-60
2023/10/12 13:58:44;;;;;;;5.72;4.13;;;;;;;;;;5054158;28;20435;-60
2023/10/12 14:01:16;;;;;;;6.43;3.85;;;;;;;;;;5055309;28;20036;-59
2023/10/12 14:03:53;;;;;;;7.97;4.43;;;;;;;;;;5054766;28;20455;-59
2023/10/12 14:06:19;;;;;;;8.93;4.15;;;;;;;;;;5054766;28;20147;-60
2023/10/12 14:08:46;;;;;;;6.53;4.60;;;;;;;;;;5054456;28;20060;-60
2023/10/12 14:11:19;;;;;;;5.78;4.25;;;;;;;;;;5054609;28;20028;-59
2023/10/12 14:13:50;;;;;;;9.85;4.57;;;;;;;;;;5053893;28;20092;-59
2023/10/12 14:16:16;;;;;;;5.90;4.18;;;;;;;;;;5054519;28;20108;-60
2023/10/12 14:18:42;;;;;;;6.20;4.40;;;;;;;;;;5053800;28;20024;-60
2023/10/12 14:21:13;;;;;;;6.10;3.90;;;;;;;;;;5054455;28;20025;-60
2023/10/12 14:23:47;;;;;;;5.13;3.65;;;;;;;;;;5054578;28;20363;-59
2023/10/12 14:26:22;;;;;;;8.70;4.50;;;;;;;;;;5054601;28;20033;-60
2023/10/12 14:28:50;;;;;;;4.50;3.67;;;;;;;;;;5054096;28;20029;-59
2023/10/12 14:31:16;;;;;;;4.07;3.17;;;;;;;;;;5054230;28;20031;-59
2023/10/12 14:33:42;;;;;;;4.90;4.40;;;;;;;;;;5053680;28;20430;-60
2023/10/12 14:36:09;;;;;;;5.82;3.47;;;;;;;;;;5053140;28;20136;-60
2023/10/12 14:38:35;;;;;;;4.90;3.08;;;;;;;;;;5053133;28;20604;-59
2023/10/12 14:41:01;;;;;;;7.07;3.45;;;;;;;;;;5054115;28;20063;-59
2023/10/12 14:43:30;;;;;;;5.57;3.45;;;;;;;;;;5053813;28;20455;-59
2023/10/12 14:45:57;;;;;;;6.28;3.53;;;;;;;;;;5054026;28;20032;-60
2023/10/12 14:48:23;;;;;;;4.55;3.03;;;;;;;;;;5053931;28;20458;-60
2023/10/12 14:50:58;;;;;;;5.18;3.70;;;;;;;;;;5053935;28;20119;-60
2023/10/12 14:53:28;;;;;;;5.20;3.45;;;;;;;;;;5054059;28;20032;-60
2023/10/12 14:55:54;;;;;;;4.40;3.13;;;;;;;;;;5053895;28;20100;-59
2023/10/12 14:58:20;;;;;;;7.82;3.33;;;;;;;;;;5053352;28;20036;-60
2023/10/12 15:00:47;;;;;;;5.20;3.30;;;;;;;;;;5053253;28;20037;-59
2023/10/12 15:03:16;;;;;;;9.63;3.28;;;;;;;;;;5053477;28;20407;-60
2023/10/12 15:05:45;;;;;;;4.38;3.20;;;;;;;;;;5055499;28;20017;-60
2023/10/12 15:08:11;;;;;;;3.55;2.45;;;;;;;;;;5060547;28;20036;-60
2023/10/12 15:10:40;;;;;;;6.68;3.00;;;;;;;;;;5060577;28;20504;-60
2023/10/12 15:13:08;;;;;;;5.00;3.47;;;;;;;;;;5060594;28;20418;-59
2023/10/12 15:15:37;;;;;;;6.75;3.20;;;;;;;;;;5059973;28;20029;-59
2023/10/12 15:18:03;;;;;;;5.65;3.05;;;;;;;;;;5060430;28;20021;-59
2023/10/12 15:20:31;;;;;;;3.85;2.55;;;;;;;;;;5060562;28;20025;-60
2023/10/12 15:22:57;;;;;;;4.38;2.92;;;;;;;;;;5059950;28;20029;-60
2023/10/12 15:25:23;;;;;;;3.60;3.00;;;;;;;;;;5059697;28;20102;-60
2023/10/12 15:27:49;;;;;;;6.07;2.65;;;;;;;;;;5060492;28;20443;-60
2023/10/12 15:30:15;;;;;;;2.92;2.50;;;;;;;;;;5060470;28;20017;-60
2023/10/12 15:32:42;;;;;;;5.03;3.13;;;;;;;;;;5060247;28;20018;-59
2023/10/12 15:35:11;;;;;;;4.20;3.22;;;;;;;;;;5059801;28;20127;-60
2023/10/12 15:37:45;;;;;;;9.18;2.63;;;;;;;;;;5060315;28;20025;-60
2023/10/12 15:40:11;;;;;;;5.70;3.50;;;;;;;;;;5060000;28;20037;-59
2023/10/12 15:42:37;;;;;;;6.07;2.85;;;;;;;;;;5059505;28;20024;-59
2023/10/12 15:45:03;;;;;;;6.30;2.55;;;;;;;;;;5059771;28;20025;-59
2023/10/12 15:47:32;;;;;;;4.70;2.55;;;;;;;;;;5059828;28;20025;-60
2023/10/12 15:49:59;;;;;;;3.85;2.65;;;;;;;;;;5059923;28;20032;-60
2023/10/12 15:52:25;;;;;;;5.93;3.50;;;;;;;;;;5060301;28;20445;-60
2023/10/12 15:54:51;;;;;;;3.92;2.33;;;;;;;;;;5059453;28;20025;-59
2023/10/12 15:57:20;;;;;;;4.43;2.97;;;;;;;;;;5058927;28;20524;-60
2023/10/12 15:59:46;;;;;;;4.00;2.05;;;;;;;;;;5059874;28;20100;-59
2023/10/12 16:02:12;;;;;;;6.35;2.67;;;;;;;;;;5059871;28;20056;-60
2023/10/12 16:04:38;;;;;;;7.13;2.70;;;;;;;;;;5060014;28;20048;-59
2023/10/12 16:07:07;;;;;;;5.68;2.88;;;;;;;;;;5060056;28;20025;-60
2023/10/12 16:09:34;;;;;;;8.70;2.63;;;;;;;;;;5059633;28;20055;-60
2023/10/12 16:12:00;;;;;;;6.75;2.20;;;;;;;;;;5059520;28;20266;-59
2023/10/12 16:14:26;;;;;;;3.42;2.35;;;;;;;;;;5059514;28;20013;-59
2023/10/12 16:16:52;;;;;;;3.50;2.10;;;;;;;;;;5058217;28;20143;-60
2023/10/12 16:19:19;;;;;;;4.78;2.33;;;;;;;;;;5056389;28;20375;-59
2023/10/12 16:21:45;;;;;;;3.78;2.72;;;;;;;;;;5056748;28;20357;-59
2023/10/12 16:24:12;;;;;;;8.15;2.65;;;;;;;;;;5056318;28;20417;-59
2023/10/12 16:26:38;;;;;;;4.18;2.58;;;;;;;;;;5056140;28;20459;-60
2023/10/12 16:29:07;;;;;;;4.75;2.80;;;;;;;;;;5056060;28;20028;-60
2023/10/12 16:31:36;;;;;;;3.83;2.35;;;;;;;;;;5056196;28;20031;-60
2023/10/12 16:34:03;;;;;;;3.10;2.28;;;;;;;;;;5056126;28;20025;-60
2023/10/12 16:36:29;;;;;;;4.53;2.60;;;;;;;;;;5056604;28;20052;-59
2023/10/12 16:38:55;;;;;;;5.30;2.78;;;;;;;;;;5056101;28;20378;-60
2023/10/12 16:41:21;;;;;;;5.00;2.70;;;;;;;;;;5056289;28;20021;-60
2023/10/12 16:43:48;;;;;;;3.50;2.30;;;;;;;;;;5055607;28;20402;-60
2023/10/12 16:46:17;;;;;;;6.20;2.17;;;;;;;;;;5056309;28;20044;-59
2023/10/12 16:48:48;;;;;;;9.98;2.97;;;;;;;;;;5055787;28;20036;-60
2023/10/12 16:51:14;;;;;;;3.47;2.60;;;;;;;;;;5055755;28;20025;-60
2023/10/12 16:53:40;;;;;;;5.22;3.13;;;;;;;;;;5055760;28;20024;-59
2023/10/12 16:56:13;;;;;;;7.38;3.47;;;;;;;;;;5055687;28;20048;-60
2023/10/12 16:58:40;;;;;;;4.82;2.97;;;;;;;;;;5055835;28;20374;-60
2023/10/12 17:01:06;;;;;;;3.92;2.65;;;;;;;;;;5056095;28;20029;-60
2023/10/12 17:03:35;;;;;;;3.58;2.35;;;;;;;;;;5055589;28;20035;-60
2023/10/12 17:06:02;;;;;;;3.80;2.42;;;;;;;;;;5055899;28;20068;-59
2023/10/12 17:08:31;;;;;;;6.63;2.80;;;;;;;;;;5055731;28;20478;-60
2023/10/12 17:10:57;;;;;;;5.90;2.53;;;;;;;;;;5055467;28;20060;-59
2023/10/12 17:13:23;;;;;;;6.65;2.85;;;;;;;;;;5055158;28;20387;-59
2023/10/12 17:15:50;;;;;;;5.25;3.00;;;;;;;;;;5055792;28;20029;-59
2023/10/12 17:18:17;;;;;;;3.65;2.20;;;;;;;;;;5055142;28;20033;-59
2023/10/12 17:20:43;;;;;;;4.78;2.35;;;;;;;;;;5055354;28;20048;-59
2023/10/12 17:23:09;;;;;;;5.93;3.50;;;;;;;;;;5055908;28;20020;-60
2023/10/12 17:25:35;;;;;;;3.60;2.83;;;;;;;;;;5055047;28;20029;-60